Thunderstorms From: 26-05-2018 09:00 Until: 27-05-2018 05:00 warning for: Thunderstorms Level: Yellow info button

Although rather usual in this region, locally or potentially dangerous phenomena are expected. (such as local winds, summer thunderstorms, rising streams or high waves) Be aware and pay attention to the latest weather updates, especially if you carry out activities exposed to weather or close to a stream or shoreline. 


Meteo18 Weather Cam more information Meteo18 Weather Cam


warning for Thunderstorms more information blitzortung!


Rain radar more information rain snow radar


Visit our other weather sites:

Template documentation
and downloads

And another site



Weather Underground History page Text

Daily Summary for February 20, 2017 Units:  English    Metric   Both
« Previous Day
Next Day »
Daily Weekly Monthly Yearly Custom
  High: Low: Average:
Temperature: TemperatureC °F -0.1 °F 5.4 °F
Dew Point: DewpointC °F -0.8 °F 4.5 °F
Humidity: Humidity % 87 % 94 %
Wind Speed: WindSpeedKMH mph 0.0 mph 5.3 mph
Wind Gust: WindSpeedGustKMH mph - -
Wind:- - SW
Pressure: PressurehPa in 1024.9 in -
Precipitation: 0.3 in    
Historical Graphs
 
 
Tabular Data for February 20, 2017
Time Temperature Dew Point Pressure Wind Wind Speed Wind Gust Humidity Rainfall Rate (Hourly)
TemperatureC °F DewpointC °F PressurehPa in Calm     Humidity % HourlyPrecipMM in
00:02 3.3 °F 1.3 °F 1027.3 in Calm   1.6 mph 87 % 0.0 in
00:07 3.3 °F 1.3 °F 1027.3 in Calm     87 % 0.0 in
00:12 3.1 °F 1.1 °F 1027.3 in Calm     87 % 0.0 in
00:17 2.8 °F 0.9 °F 1027.3 in Calm     87 % 0.0 in
00:22 2.8 °F 1.2 °F 1027.3 in Calm     89 % 0.0 in
00:32 2.7 °F 0.9 °F 1027.3 in Calm     88 % 0.0 in
00:42 2.3 °F 0.7 °F 1027.0 in Calm     89 % 0.0 in
00:47 2.3 °F 0.8 °F 1027.0 in Calm     90 % 0.0 in
00:52 2.3 °F 0.8 °F 1027.0 in Calm     90 % 0.0 in
00:57 2.4 °F 1.1 °F 1027.0 in Calm     91 % 0.0 in
01:02 2.4 °F 0.9 °F 1027.0 in Calm     90 % 0.0 in
01:12 2.2 °F 0.7 °F 1027.0 in Calm     90 % 0.0 in
01:17 2.2 °F 0.9 °F 1027.0 in Calm     91 % 0.0 in
01:22 2.3 °F 1.0 °F 1027.0 in Calm     91 % 0.0 in
01:27 2.2 °F 0.9 °F 1027.0 in Calm     91 % 0.0 in
01:32 2.3 °F 1.0 °F 1027.3 in Calm     91 % 0.0 in
01:37 2.5 °F 1.2 °F 1027.0 in Calm     91 % 0.0 in
01:42 2.3 °F 0.8 °F 1027.0 in Calm   1.6 mph 90 % 0.0 in
01:47 2.2 °F 0.9 °F 1027.3 in Calm   1.6 mph 91 % 0.0 in
01:57 1.9 °F 0.4 °F 1027.0 in Calm   1.6 mph 90 % 0.0 in
02:02 1.8 °F 0.5 °F 1027.0 in Calm   1.6 mph 91 % 0.0 in
02:07 1.6 °F 0.3 °F 1027.0 in Calm   1.6 mph 91 % 0.0 in
02:12 1.4 °F 0.2 °F 1027.0 in Calm   1.6 mph 92 % 0.0 in
02:17 1.3 °F 0.1 °F 1027.0 in Calm   1.6 mph 92 % 0.0 in
02:22 1.3 °F 0.1 °F 1027.0 in Calm   1.6 mph 92 % 0.0 in
02:27 1.3 °F 0.1 °F 1027.0 in SSE 1.6 mph   92 % 0.0 in
02:32 1.2 °F 0.0 °F 1027.0 in Calm   1.6 mph 92 % 0.0 in
02:37 1.1 °F -0.1 °F 1027.0 in South 1.6 mph 1.6 mph 92 % 0.0 in
02:42 1.1 °F 0.1 °F 1027.0 in Calm   3.2 mph 93 % 0.0 in
02:47 1.1 °F 0.1 °F 1027.0 in Calm   3.2 mph 93 % 0.0 in
02:52 0.9 °F -0.1 °F 1027.0 in Calm   3.2 mph 93 % 0.0 in
02:57 0.9 °F -0.1 °F 1027.0 in SSW 1.6 mph 3.2 mph 93 % 0.0 in
03:02 0.9 °F -0.1 °F 1027.0 in Calm   3.2 mph 93 % 0.0 in
03:07 0.8 °F -0.2 °F 1027.0 in Calm   3.2 mph 93 % 0.0 in
03:12 0.8 °F -0.2 °F 1027.0 in Calm   3.2 mph 93 % 0.0 in
03:17 0.8 °F -0.2 °F 1027.0 in SSW 1.6 mph 3.2 mph 93 % 0.0 in
03:22 0.8 °F -0.1 °F 1026.6 in Calm   1.6 mph 94 % 0.0 in
03:27 0.8 °F -0.1 °F 1026.6 in Calm   1.6 mph 94 % 0.0 in
03:32 0.9 °F 0.0 °F 1026.6 in Calm   1.6 mph 94 % 0.0 in
03:37 0.9 °F 0.0 °F 1026.6 in Calm   1.6 mph 94 % 0.0 in
03:42 0.8 °F -0.1 °F 1026.6 in Calm   1.6 mph 94 % 0.0 in
03:47 0.7 °F -0.2 °F 1026.6 in Calm     94 % 0.0 in
03:52 0.7 °F -0.2 °F 1026.6 in Calm     94 % 0.0 in
03:57 0.6 °F -0.3 °F 1026.6 in Calm     94 % 0.0 in
04:02 0.5 °F -0.4 °F 1026.6 in Calm     94 % 0.0 in
04:07 0.5 °F -0.4 °F 1026.3 in Calm     94 % 0.0 in
04:12 0.4 °F -0.5 °F 1026.6 in Calm     94 % 0.0 in
04:17 0.3 °F -0.6 °F 1026.6 in Calm     94 % 0.0 in
04:22 0.4 °F -0.3 °F 1026.6 in Calm     95 % 0.0 in
04:32 0.4 °F -0.3 °F 1026.6 in Calm     95 % 0.0 in
04:37 0.4 °F -0.3 °F 1026.6 in Calm     95 % 0.0 in
04:42 0.4 °F -0.3 °F 1026.6 in Calm     95 % 0.0 in
04:52 0.3 °F -0.4 °F 1026.6 in Calm     95 % 0.0 in
04:57 0.2 °F -0.5 °F 1026.6 in Calm     95 % 0.0 in
05:02 0.1 °F -0.6 °F 1026.6 in Calm     95 % 0.0 in
05:12 -0.1 °F -0.8 °F 1026.6 in Calm     95 % 0.0 in
05:17 -0.1 °F -0.8 °F 1026.3 in Calm     95 % 0.0 in
05:22 0.0 °F -0.7 °F 1026.3 in Calm     95 % 0.0 in
05:32 0.1 °F -0.6 °F 1026.3 in Calm     95 % 0.0 in
05:42 0.3 °F -0.4 °F 1026.3 in Calm     95 % 0.0 in
05:47 0.3 °F -0.4 °F 1026.6 in Calm     95 % 0.0 in
05:52 0.4 °F -0.3 °F 1026.6 in Calm     95 % 0.0 in
05:57 0.5 °F -0.2 °F 1026.6 in Calm     95 % 0.0 in
06:02 0.6 °F -0.1 °F 1026.3 in Calm     95 % 0.0 in
06:12 0.7 °F 0.0 °F 1026.3 in Calm     95 % 0.0 in
06:17 0.7 °F 0.0 °F 1026.3 in Calm     95 % 0.0 in
06:22 0.7 °F 0.0 °F 1026.3 in Calm     95 % 0.0 in
06:32 0.8 °F 0.1 °F 1026.3 in Calm     95 % 0.0 in
06:37 0.9 °F 0.2 °F 1026.6 in Calm     95 % 0.0 in
06:42 0.9 °F 0.2 °F 1026.6 in Calm     95 % 0.0 in
06:47 1.0 °F 0.3 °F 1026.6 in Calm     95 % 0.0 in
06:52 1.1 °F 0.4 °F 1026.6 in Calm     95 % 0.0 in
07:02 1.3 °F 0.6 °F 1026.6 in Calm     95 % 0.0 in
07:12 1.4 °F 0.7 °F 1026.6 in Calm     95 % 0.0 in
07:17 1.4 °F 0.7 °F 1026.6 in Calm     95 % 0.0 in
07:22 1.5 °F 0.8 °F 1026.3 in SE 1.6 mph   95 % 0.0 in
07:32 1.5 °F 0.8 °F 1026.3 in Calm     95 % 0.0 in
07:42 1.4 °F 0.7 °F 1026.3 in Calm   3.2 mph 95 % 0.0 in
07:47 1.4 °F 0.7 °F 1026.3 in Calm   1.6 mph 95 % 0.0 in
07:52 1.4 °F 0.7 °F 1026.3 in SSE 1.6 mph 1.6 mph 95 % 0.0 in
07:57 1.5 °F 0.8 °F 1026.3 in Calm   3.2 mph 95 % 0.0 in
08:02 1.6 °F 0.9 °F 1026.3 in Calm   3.2 mph 95 % 0.0 in
08:12 1.6 °F 0.9 °F 1026.6 in Calm   3.2 mph 95 % 0.0 in
08:17 1.6 °F 0.9 °F 1026.6 in Calm   3.2 mph 95 % 0.0 in
08:22 1.6 °F 0.9 °F 1026.6 in SSE 1.6 mph 3.2 mph 95 % 0.0 in
08:32 1.7 °F 1.0 °F 1026.6 in South 1.6 mph 3.2 mph 95 % 0.0 in
08:37 1.8 °F 1.1 °F 1027.0 in South 3.2 mph 4.8 mph 95 % 0.0 in
08:42 2.1 °F 1.4 °F 1027.0 in SSE 1.6 mph 4.8 mph 95 % 0.0 in
08:52 2.5 °F 1.6 °F 1027.0 in SSE 1.6 mph 4.8 mph 94 % 0.0 in
08:57 2.7 °F 1.7 °F 1027.3 in SW 3.2 mph 4.8 mph 93 % 0.0 in
09:02 2.9 °F 1.7 °F 1027.0 in South 3.2 mph 4.8 mph 92 % 0.0 in
09:12 3.5 °F 2.2 °F 1027.0 in SSW 3.2 mph 4.8 mph 91 % 0.0 in
09:22 4.1 °F 2.6 °F 1027.0 in South 3.2 mph 6.4 mph 90 % 0.0 in
09:32 4.4 °F 2.7 °F 1027.0 in South 1.6 mph 6.4 mph 89 % 0.0 in
09:42 4.7 °F 2.9 °F 1027.3 in SW 11.3 mph 11.3 mph 88 % 0.0 in
09:47 4.8 °F 2.8 °F 1027.0 in SSW 6.4 mph 11.3 mph 87 % 0.0 in
09:52 5.0 °F 3.2 °F 1027.0 in SSW 6.4 mph 11.3 mph 88 % 0.0 in
09:57 5.3 °F 3.6 °F 1027.0 in SW 6.4 mph 12.9 mph 89 % 0.0 in
10:02 5.4 °F 3.6 °F 1027.0 in SSW 4.8 mph 12.9 mph 88 % 0.0 in
10:12 5.1 °F 3.3 °F 1027.0 in SW 8.0 mph 12.9 mph 88 % 0.0 in
10:17 5.2 °F 3.4 °F 1027.0 in SW 4.8 mph 16.1 mph 88 % 0.0 in
10:22 5.2 °F 3.5 °F 1027.0 in WNW 4.8 mph 16.1 mph 89 % 0.0 in
10:32 5.1 °F 3.6 °F 1027.0 in SW 4.8 mph 17.7 mph 90 % 0.0 in
10:42 5.1 °F 3.6 °F 1027.3 in SW 4.8 mph 17.7 mph 90 % 0.0 in
10:47 5.1 °F 3.6 °F 1027.0 in Calm   12.9 mph 90 % 0.0 in
10:52 5.1 °F 3.6 °F 1027.0 in SW 6.4 mph 17.7 mph 90 % 0.0 in
10:57 5.1 °F 3.6 °F 1027.0 in WSW 4.8 mph 17.7 mph 90 % 0.0 in
11:02 5.2 °F 3.7 °F 1027.0 in SW 14.5 mph 17.7 mph 90 % 0.0 in
11:07 5.1 °F 3.8 °F 1027.0 in SSW 6.4 mph 17.7 mph 91 % 0.0 in
11:12 5.1 °F 3.8 °F 1027.0 in SW 12.9 mph 17.7 mph 91 % 0.0 in
11:17 4.9 °F 3.6 °F 1027.0 in SW 9.7 mph 17.7 mph 91 % 0.0 in
11:22 5.2 °F 3.9 °F 1027.0 in SSW 4.8 mph 17.7 mph 91 % 0.0 in
11:32 5.5 °F 4.1 °F 1027.0 in South 4.8 mph 16.1 mph 91 % 0.0 in
11:37 5.6 °F 4.1 °F 1027.0 in SW 11.3 mph 17.7 mph 90 % 0.0 in
11:42 5.8 °F 4.4 °F 1027.0 in SW 12.9 mph 17.7 mph 91 % 0.0 in
11:47 5.9 °F 4.4 °F 1027.0 in SW 11.3 mph 17.7 mph 90 % 0.0 in
11:52 5.8 °F 4.3 °F 1027.0 in SSW 4.8 mph 17.7 mph 90 % 0.0 in
11:57 5.9 °F 4.4 °F 1027.0 in SSW 3.2 mph 17.7 mph 90 % 0.0 in
12:02 5.9 °F 4.4 °F 1027.0 in SSW 6.4 mph 17.7 mph 90 % 0.0 in
12:07 5.9 °F 4.4 °F 1026.6 in SSW 8.0 mph 17.7 mph 90 % 0.0 in
12:12 6.1 °F 4.6 °F 1026.6 in SW 9.7 mph 16.1 mph 90 % 0.0 in
12:17 6.2 °F 4.5 °F 1027.0 in SSW 9.7 mph 16.1 mph 89 % 0.0 in
12:22 6.4 °F 4.7 °F 1027.0 in SW 9.7 mph 16.1 mph 89 % 0.0 in
12:27 6.6 °F 4.9 °F 1026.6 in SW 11.3 mph 16.1 mph 89 % 0.0 in
12:32 6.6 °F 4.9 °F 1026.6 in SW 9.7 mph 16.1 mph 89 % 0.0 in
12:42 6.9 °F 5.5 °F 1026.6 in SW 9.7 mph 17.7 mph 91 % 0.0 in
12:47 7.1 °F 5.6 °F 1026.6 in SW 8.0 mph 14.5 mph 90 % 0.0 in
12:52 7.2 °F 5.8 °F 1026.6 in SSW 4.8 mph 14.5 mph 91 % 0.0 in
12:57 7.4 °F 5.9 °F 1026.6 in WSW 9.7 mph 16.1 mph 90 % 0.0 in
13:02 7.5 °F 6.0 °F 1026.6 in WSW 6.4 mph 16.1 mph 90 % 0.0 in
13:07 7.6 °F 5.9 °F 1026.6 in SSW 11.3 mph 17.7 mph 89 % 0.0 in
13:12 7.6 °F 6.1 °F 1026.6 in WSW 11.3 mph 17.7 mph 90 % 0.0 in
13:17 7.7 °F 6.2 °F 1026.3 in SW 16.1 mph 17.7 mph 90 % 0.0 in
13:22 7.8 °F 6.4 °F 1026.3 in SW 11.3 mph 16.1 mph 91 % 0.0 in
13:32 7.9 °F 6.4 °F 1026.3 in SW 12.9 mph 16.1 mph 90 % 0.0 in
13:42 7.9 °F 6.5 °F 1026.3 in SW 9.7 mph 19.3 mph 91 % 0.0 in
13:47 8.0 °F 6.6 °F 1026.0 in SW 12.9 mph 19.3 mph 91 % 0.0 in
13:52 7.9 °F 6.7 °F 1026.0 in SW 11.3 mph 19.3 mph 92 % 0.0 in
13:57 8.0 °F 6.9 °F 1026.0 in SW 11.3 mph 19.3 mph 93 % 0.0 in
14:02 7.9 °F 6.8 °F 1026.0 in SSW 9.7 mph 19.3 mph 93 % 0.0 in
14:07 8.0 °F 7.1 °F 1026.0 in SSW 9.7 mph 19.3 mph 94 % 0.0 in
14:12 8.1 °F 7.2 °F 1026.0 in SW 14.5 mph 19.3 mph 94 % 0.0 in
14:17 8.1 °F 7.2 °F 1026.0 in SW 16.1 mph 17.7 mph 94 % 0.0 in
14:22 8.1 °F 7.2 °F 1026.0 in SW 14.5 mph 19.3 mph 94 % 0.0 in
14:27 8.2 °F 7.3 °F 1026.0 in SW 12.9 mph 19.3 mph 94 % 0.0 in
14:32 8.2 °F 7.1 °F 1026.0 in SW 6.4 mph 19.3 mph 93 % 0.0 in
14:37 8.2 °F 7.1 °F 1025.6 in SW 17.7 mph 17.7 mph 93 % 0.0 in
14:42 8.3 °F 7.2 °F 1025.6 in SW 14.5 mph 17.7 mph 93 % 0.0 in
14:47 8.3 °F 7.2 °F 1025.6 in SSW 4.8 mph 19.3 mph 93 % 0.0 in
14:57 8.4 °F 7.5 °F 1025.6 in SSW 11.3 mph 19.3 mph 94 % 0.0 in
15:02 8.5 °F 7.6 °F 1025.6 in SSW 9.7 mph 19.3 mph 94 % 0.0 in
15:12 8.6 °F 7.7 °F 1025.3 in West 9.7 mph 16.1 mph 94 % 0.0 in
15:17 8.5 °F 7.7 °F 1025.6 in SW 12.9 mph 17.7 mph 95 % 0.0 in
15:22 8.5 °F 7.7 °F 1025.6 in SW 11.3 mph 17.7 mph 95 % 0.0 in
15:27 8.5 °F 7.7 °F 1025.6 in SSW 4.8 mph 16.1 mph 95 % 0.0 in
15:32 8.5 °F 7.7 °F 1025.6 in SSW 11.3 mph 16.1 mph 95 % 0.0 in
15:37 8.5 °F 7.7 °F 1025.6 in South 6.4 mph 12.9 mph 95 % 0.0 in
15:42 8.5 °F 7.9 °F 1025.3 in SW 8.0 mph 19.3 mph 96 % 0.0 in
15:47 8.5 °F 7.9 °F 1025.3 in SW 8.0 mph 19.3 mph 96 % 0.0 in
15:52 8.5 °F 7.9 °F 1025.3 in SW 6.4 mph 19.3 mph 96 % 0.0 in
15:57 8.6 °F 8.0 °F 1025.3 in SW 9.7 mph 16.1 mph 96 % 0.0 in
16:07 8.6 °F 8.0 °F 1025.3 in SW 8.0 mph 19.3 mph 96 % 0.0 in
16:12 8.6 °F 8.0 °F 1025.3 in WSW 12.9 mph 19.3 mph 96 % 0.0 in
16:17 8.6 °F 8.0 °F 1025.3 in SSW 11.3 mph 19.3 mph 96 % 0.0 in
16:22 8.6 °F 8.0 °F 1024.9 in SW 17.7 mph 29.0 mph 96 % 0.0 in
16:27 8.6 °F 8.0 °F 1024.9 in West 6.4 mph 29.0 mph 96 % 0.0 in
16:32 8.6 °F 8.0 °F 1024.9 in West 12.9 mph 29.0 mph 96 % 0.0 in
16:37 8.6 °F 8.0 °F 1025.3 in WSW 6.4 mph 24.1 mph 96 % 0.0 in
16:42 8.6 °F 8.0 °F 1025.3 in West 14.5 mph 22.5 mph 96 % 0.0 in
16:47 8.6 °F 8.0 °F 1024.9 in WSW 6.4 mph 19.3 mph 96 % 0.0 in
16:52 8.6 °F 8.0 °F 1024.9 in WSW 6.4 mph 22.5 mph 96 % 0.0 in
16:57 8.7 °F 8.1 °F 1024.9 in WSW 11.3 mph 22.5 mph 96 % 0.0 in
17:02 8.7 °F 8.1 °F 1024.9 in SW 6.4 mph 22.5 mph 96 % 0.0 in
17:12 8.7 °F 8.1 °F 1024.9 in SW 3.2 mph 24.1 mph 96 % 0.0 in
17:17 8.7 °F 8.1 °F 1024.9 in West 14.5 mph 24.1 mph 96 % 0.0 in
17:22 8.7 °F 8.1 °F 1024.9 in WSW 9.7 mph 20.9 mph 96 % 0.0 in
17:27 8.7 °F 8.1 °F 1024.9 in South 4.8 mph 20.9 mph 96 % 0.0 in
17:32 8.7 °F 8.1 °F 1024.9 in WSW 12.9 mph 20.9 mph 96 % 0.0 in
17:37 8.7 °F 8.1 °F 1024.9 in SW 11.3 mph 20.9 mph 96 % 0.0 in
17:42 8.7 °F 8.1 °F 1024.9 in SW 9.7 mph 20.9 mph 96 % 0.0 in
17:47 8.7 °F 8.1 °F 1024.9 in SW 8.0 mph 27.4 mph 96 % 0.0 in
17:52 8.7 °F 8.1 °F 1024.9 in SSW 3.2 mph 27.4 mph 96 % 0.0 in
17:57 8.7 °F 8.1 °F 1024.9 in SSW 4.8 mph 27.4 mph 96 % 0.0 in
18:02 8.7 °F 8.1 °F 1024.9 in West 6.4 mph 27.4 mph 96 % 0.0 in
18:07 8.7 °F 8.1 °F 1025.3 in SW 11.3 mph 20.9 mph 96 % 0.0 in
18:12 8.7 °F 8.1 °F 1024.9 in SW 4.8 mph 20.9 mph 96 % 0.0 in
18:17 8.7 °F 8.1 °F 1024.9 in SW 9.7 mph 20.9 mph 96 % 0.0 in
18:22 8.7 °F 8.1 °F 1025.3 in SW 8.0 mph 19.3 mph 96 % 0.0 in
18:27 8.7 °F 8.1 °F 1024.9 in SW 11.3 mph 19.3 mph 96 % 0.0 in
18:32 8.7 °F 8.1 °F 1024.9 in SW 16.1 mph 19.3 mph 96 % 0.0 in
18:42 8.8 °F 8.2 °F 1024.9 in WSW 14.5 mph 20.9 mph 96 % 0.0 in
18:47 8.8 °F 8.2 °F 1025.3 in WSW 12.9 mph 20.9 mph 96 % 0.0 in
18:52 8.8 °F 8.2 °F 1025.3 in WSW 9.7 mph 20.9 mph 96 % 0.0 in
18:57 8.8 °F 8.2 °F 1025.3 in SSW 8.0 mph 20.9 mph 96 % 0.0 in
19:02 8.7 °F 8.1 °F 1025.3 in SW 8.0 mph 20.9 mph 96 % 0.0 in
19:07 8.7 °F 8.3 °F 1025.3 in SSW 4.8 mph 17.7 mph 97 % 0.0 in
19:12 8.7 °F 8.3 °F 1025.3 in SSW 1.6 mph 16.1 mph 97 % 0.0 in
19:17 8.7 °F 8.3 °F 1025.3 in West 4.8 mph 16.1 mph 97 % 0.0 in
19:22 8.7 °F 8.3 °F 1025.3 in WSW 4.8 mph 11.3 mph 97 % 0.0 in
19:27 8.7 °F 8.3 °F 1025.3 in SW 6.4 mph 12.9 mph 97 % 0.0 in
19:32 8.7 °F 8.3 °F 1025.3 in WSW 16.1 mph 16.1 mph 97 % 0.3 in
19:37 8.7 °F 8.3 °F 1025.3 in West 6.4 mph 17.7 mph 97 % 0.3 in
19:42 8.7 °F 8.3 °F 1025.3 in SW 4.8 mph 19.3 mph 97 % 0.3 in
19:47 8.7 °F 8.3 °F 1025.3 in SW 4.8 mph 19.3 mph 97 % 0.3 in
19:52 8.7 °F 8.3 °F 1025.3 in WSW 6.4 mph 19.3 mph 97 % 0.3 in
19:57 8.7 °F 8.3 °F 1025.3 in SW 17.7 mph 17.7 mph 97 % 0.3 in
20:02 8.7 °F 8.3 °F 1025.3 in SW 3.2 mph 12.9 mph 97 % 0.3 in
20:07 8.7 °F 8.3 °F 1025.3 in WSW 9.7 mph 17.7 mph 97 % 0.3 in
20:12 8.7 °F 8.3 °F 1025.3 in WSW 11.3 mph 17.7 mph 97 % 0.3 in
20:17 8.7 °F 8.3 °F 1025.6 in West 3.2 mph 17.7 mph 97 % 0.3 in
20:22 8.7 °F 8.3 °F 1025.3 in SW 3.2 mph 17.7 mph 97 % 0.3 in
20:27 8.7 °F 8.1 °F 1025.3 in West 1.6 mph 17.7 mph 96 % 0.3 in
20:32 8.7 °F 8.1 °F 1025.3 in West 8.0 mph 17.7 mph 96 % 0.0 in
20:37 8.7 °F 8.1 °F 1025.3 in WSW 9.7 mph 17.7 mph 96 % 0.0 in
20:42 8.7 °F 8.1 °F 1025.3 in WSW 9.7 mph 17.7 mph 96 % 0.0 in
20:47 8.7 °F 8.1 °F 1025.3 in West 9.7 mph 17.7 mph 96 % 0.0 in
20:52 8.7 °F 8.1 °F 1025.3 in WSW 8.0 mph 17.7 mph 96 % 0.0 in
20:57 8.7 °F 8.1 °F 1025.3 in WSW 12.9 mph 16.1 mph 96 % 0.0 in
21:02 8.7 °F 8.1 °F 1025.3 in WSW 8.0 mph 16.1 mph 96 % 0.0 in
21:12 8.7 °F 8.1 °F 1025.3 in SW 11.3 mph 24.1 mph 96 % 0.0 in
21:17 8.7 °F 8.1 °F 1025.3 in SW 6.4 mph 24.1 mph 96 % 0.0 in
21:22 8.7 °F 8.1 °F 1025.3 in WSW 4.8 mph 24.1 mph 96 % 0.0 in
21:27 8.7 °F 8.1 °F 1025.6 in South 3.2 mph 22.5 mph 96 % 0.0 in
21:32 8.6 °F 8.0 °F 1025.3 in SW 8.0 mph 22.5 mph 96 % 0.0 in
21:37 8.6 °F 8.0 °F 1025.3 in SW 16.1 mph 16.1 mph 96 % 0.0 in
21:42 8.6 °F 8.2 °F 1025.6 in SW 1.6 mph 19.3 mph 97 % 0.0 in
21:47 8.6 °F 8.2 °F 1025.6 in SW 4.8 mph 19.3 mph 97 % 0.0 in
21:52 8.6 °F 8.2 °F 1025.6 in West 8.0 mph 19.3 mph 97 % 0.0 in
21:57 8.6 °F 8.2 °F 1025.6 in Calm   17.7 mph 97 % 0.0 in
22:02 8.6 °F 8.2 °F 1025.6 in SW 6.4 mph 17.7 mph 97 % 0.0 in
22:12 8.6 °F 8.2 °F 1025.6 in South 3.2 mph 12.9 mph 97 % 0.0 in
22:17 8.6 °F 8.2 °F 1025.6 in SW 14.5 mph 14.5 mph 97 % 0.0 in
22:22 8.6 °F 8.2 °F 1025.6 in WSW 1.6 mph 14.5 mph 97 % 0.0 in
22:27 8.6 °F 8.2 °F 1025.6 in WNW 4.8 mph 14.5 mph 97 % 0.0 in
22:32 8.6 °F 8.2 °F 1025.6 in SW 11.3 mph 14.5 mph 97 % 0.0 in
22:37 8.6 °F 8.2 °F 1025.6 in WSW 6.4 mph 19.3 mph 97 % 0.0 in
22:42 8.7 °F 8.3 °F 1025.6 in SW 3.2 mph 20.9 mph 97 % 0.0 in
22:47 8.6 °F 8.2 °F 1025.6 in WSW 6.4 mph 20.9 mph 97 % 0.0 in
22:52 8.6 °F 8.2 °F 1025.6 in West 3.2 mph 19.3 mph 97 % 0.0 in
22:57 8.7 °F 8.3 °F 1025.6 in WSW 9.7 mph 19.3 mph 97 % 0.0 in
23:02 8.7 °F 8.3 °F 1025.6 in WSW 8.0 mph 19.3 mph 97 % 0.0 in
23:07 8.7 °F 8.3 °F 1025.6 in WSW 9.7 mph 16.1 mph 97 % 0.0 in
23:12 8.7 °F 8.3 °F 1025.6 in WSW 4.8 mph 16.1 mph 97 % 0.0 in
23:17 8.7 °F 8.3 °F 1025.6 in SW 3.2 mph 14.5 mph 97 % 0.0 in
23:22 8.7 °F 8.3 °F 1025.6 in WSW 8.0 mph 14.5 mph 97 % 0.0 in
23:27 8.7 °F 8.3 °F 1025.6 in WSW 4.8 mph 14.5 mph 97 % 0.0 in
23:32 8.7 °F 8.3 °F 1025.3 in SSW 4.8 mph 14.5 mph 97 % 0.0 in
23:37 8.7 °F 8.3 °F 1025.3 in SSW 3.2 mph 11.3 mph 97 % 0.0 in
23:42 8.7 °F 8.3 °F 1025.3 in SW 4.8 mph 11.3 mph 97 % 0.0 in
23:47 8.7 °F 8.3 °F 1025.3 in WSW 3.2 mph 9.7 mph 97 % 0.0 in
23:52 8.7 °F 8.3 °F 1025.3 in SW 4.8 mph 9.7 mph 97 % 0.0 in
Meteo18
Compliments of Weather Underground - 4 mb

Script developed by  Jim McMurry - jmcmurry@mwt.net Adapted for the template by  Wim van der Kuil - Leuven-Template.eu

You find our weather info also at:

European Weather Network

Weather Underground

Equipment we use:

Weather-station
Davis Vue

Weather-program
Meteobridge

Weather-server
Raspberry PI 2 B+

Provider
1 and 1

Davis Vue

Meteobridge

Raspberry PI 2 B+

1 and 1